sensor_id;sensor_type;location;lat;lon;timestamp;P1;P2;P0
44350;PMS5003;62766;62.622;17.912;2023-04-24T00:02:21;3;3;
44350;PMS5003;62766;62.622;17.912;2023-04-24T00:04:50;3;3;
44350;PMS5003;62766;62.622;17.912;2023-04-24T00:07:18;5;3;
44350;PMS5003;62766;62.622;17.912;2023-04-24T00:09:47;2;2;
44350;PMS5003;62766;62.622;17.912;2023-04-24T00:12:15;2;2;
44350;PMS5003;62766;62.622;17.912;2023-04-24T00:14:44;3;3;
44350;PMS5003;62766;62.622;17.912;2023-04-24T00:17:13;4;3;
44350;PMS5003;62766;62.622;17.912;2023-04-24T00:19:41;2;2;
44350;PMS5003;62766;62.622;17.912;2023-04-24T00:22:09;3;3;
44350;PMS5003;62766;62.622;17.912;2023-04-24T00:24:38;5;4;
44350;PMS5003;62766;62.622;17.912;2023-04-24T00:27:06;3;3;
44350;PMS5003;62766;62.622;17.912;2023-04-24T00:29:35;2;2;
44350;PMS5003;62766;62.622;17.912;2023-04-24T00:32:04;3;3;
44350;PMS5003;62766;62.622;17.912;2023-04-24T00:34:32;3;3;
44350;PMS5003;62766;62.622;17.912;2023-04-24T00:37:01;2;2;
44350;PMS5003;62766;62.622;17.912;2023-04-24T00:39:29;3;3;
44350;PMS5003;62766;62.622;17.912;2023-04-24T00:41:58;5;5;
44350;PMS5003;62766;62.622;17.912;2023-04-24T00:44:26;3;3;
44350;PMS5003;62766;62.622;17.912;2023-04-24T00:46:55;3;3;
44350;PMS5003;62766;62.622;17.912;2023-04-24T00:49:24;2;2;
44350;PMS5003;62766;62.622;17.912;2023-04-24T00:51:52;6;2;
44350;PMS5003;62766;62.622;17.912;2023-04-24T00:54:20;3;3;
44350;PMS5003;62766;62.622;17.912;2023-04-24T00:56:49;3;3;
44350;PMS5003;62766;62.622;17.912;2023-04-24T00:59:17;3;3;
44350;PMS5003;62766;62.622;17.912;2023-04-24T01:01:46;6;4;
44350;PMS5003;62766;62.622;17.912;2023-04-24T01:04:14;5;5;
44350;PMS5003;62766;62.622;17.912;2023-04-24T01:06:45;6;5;
44350;PMS5003;62766;62.622;17.912;2023-04-24T01:09:14;2;2;
44350;PMS5003;62766;62.622;17.912;2023-04-24T01:11:44;3;3;
44350;PMS5003;62766;62.622;17.912;2023-04-24T01:14:13;5;3;
44350;PMS5003;62766;62.622;17.912;2023-04-24T01:16:41;5;5;
44350;PMS5003;62766;62.622;17.912;2023-04-24T01:19:10;5;3;
44350;PMS5003;62766;62.622;17.912;2023-04-24T01:21:38;3;3;
44350;PMS5003;62766;62.622;17.912;2023-04-24T01:24:07;3;3;
44350;PMS5003;62766;62.622;17.912;2023-04-24T01:26:35;3;3;
44350;PMS5003;62766;62.622;17.912;2023-04-24T01:29:04;3;3;
44350;PMS5003;62766;62.622;17.912;2023-04-24T01:31:32;2;2;
44350;PMS5003;62766;62.622;17.912;2023-04-24T01:34:01;3;3;
44350;PMS5003;62766;62.622;17.912;2023-04-24T01:36:29;2;2;
44350;PMS5003;62766;62.622;17.912;2023-04-24T01:39:00;2;2;
44350;PMS5003;62766;62.622;17.912;2023-04-24T01:41:28;3;3;
44350;PMS5003;62766;62.622;17.912;2023-04-24T01:43:57;2;2;
44350;PMS5003;62766;62.622;17.912;2023-04-24T01:46:25;3;3;
44350;PMS5003;62766;62.622;17.912;2023-04-24T01:48:54;2;2;
44350;PMS5003;62766;62.622;17.912;2023-04-24T01:51:23;3;3;
44350;PMS5003;62766;62.622;17.912;2023-04-24T01:53:53;4;4;
44350;PMS5003;62766;62.622;17.912;2023-04-24T01:56:22;3;3;
44350;PMS5003;62766;62.622;17.912;2023-04-24T01:58:52;4;4;
44350;PMS5003;62766;62.622;17.912;2023-04-24T02:01:23;5;4;
44350;PMS5003;62766;62.622;17.912;2023-04-24T02:03:52;2;2;
44350;PMS5003;62766;62.622;17.912;2023-04-24T02:06:21;3;2;
44350;PMS5003;62766;62.622;17.912;2023-04-24T02:08:49;4;4;
44350;PMS5003;62766;62.622;17.912;2023-04-24T02:11:18;5;5;
44350;PMS5003;62766;62.622;17.912;2023-04-24T02:13:46;3;3;
44350;PMS5003;62766;62.622;17.912;2023-04-24T02:16:15;4;4;
44350;PMS5003;62766;62.622;17.912;2023-04-24T02:18:43;2;2;
44350;PMS5003;62766;62.622;17.912;2023-04-24T02:21:12;5;5;
44350;PMS5003;62766;62.622;17.912;2023-04-24T02:23:40;3;3;
44350;PMS5003;62766;62.622;17.912;2023-04-24T02:26:10;3;3;
44350;PMS5003;62766;62.622;17.912;2023-04-24T02:28:38;3;3;
44350;PMS5003;62766;62.622;17.912;2023-04-24T02:31:06;3;3;
44350;PMS5003;62766;62.622;17.912;2023-04-24T02:33:35;4;4;
44350;PMS5003;62766;62.622;17.912;2023-04-24T02:36:04;3;3;
44350;PMS5003;62766;62.622;17.912;2023-04-24T02:38:33;4;4;
44350;PMS5003;62766;62.622;17.912;2023-04-24T02:41:01;4;4;
44350;PMS5003;62766;62.622;17.912;2023-04-24T02:43:30;3;3;
44350;PMS5003;62766;62.622;17.912;2023-04-24T02:45:58;3;3;
44350;PMS5003;62766;62.622;17.912;2023-04-24T02:48:27;5;4;
44350;PMS5003;62766;62.622;17.912;2023-04-24T02:50:55;3;3;
44350;PMS5003;62766;62.622;17.912;2023-04-24T02:53:24;3;3;
44350;PMS5003;62766;62.622;17.912;2023-04-24T02:55:52;5;5;
44350;PMS5003;62766;62.622;17.912;2023-04-24T02:58:21;2;2;
44350;PMS5003;62766;62.622;17.912;2023-04-24T03:00:56;4;4;
44350;PMS5003;62766;62.622;17.912;2023-04-24T03:03:25;3;3;
44350;PMS5003;62766;62.622;17.912;2023-04-24T03:05:53;3;3;
44350;PMS5003;62766;62.622;17.912;2023-04-24T03:08:22;3;3;
44350;PMS5003;62766;62.622;17.912;2023-04-24T03:10:52;3;3;
44350;PMS5003;62766;62.622;17.912;2023-04-24T03:13:21;3;3;
44350;PMS5003;62766;62.622;17.912;2023-04-24T03:15:49;3;3;
44350;PMS5003;62766;62.622;17.912;2023-04-24T03:18:18;3;3;
44350;PMS5003;62766;62.622;17.912;2023-04-24T03:20:46;5;5;
44350;PMS5003;62766;62.622;17.912;2023-04-24T03:23:15;3;3;
44350;PMS5003;62766;62.622;17.912;2023-04-24T03:25:43;4;3;
44350;PMS5003;62766;62.622;17.912;2023-04-24T03:28:12;4;4;
44350;PMS5003;62766;62.622;17.912;2023-04-24T03:30:40;4;4;
44350;PMS5003;62766;62.622;17.912;2023-04-24T03:33:09;5;4;
44350;PMS5003;62766;62.622;17.912;2023-04-24T03:35:37;4;3;
44350;PMS5003;62766;62.622;17.912;2023-04-24T03:38:06;4;4;
44350;PMS5003;62766;62.622;17.912;2023-04-24T03:40:34;3;3;
44350;PMS5003;62766;62.622;17.912;2023-04-24T03:43:03;5;5;
44350;PMS5003;62766;62.622;17.912;2023-04-24T03:45:32;4;4;
44350;PMS5003;62766;62.622;17.912;2023-04-24T03:48:00;5;4;
44350;PMS5003;62766;62.622;17.912;2023-04-24T03:50:29;4;3;
44350;PMS5003;62766;62.622;17.912;2023-04-24T03:52:57;4;3;
44350;PMS5003;62766;62.622;17.912;2023-04-24T03:55:26;3;3;
44350;PMS5003;62766;62.622;17.912;2023-04-24T03:57:54;3;3;
44350;PMS5003;62766;62.622;17.912;2023-04-24T04:03:24;3;3;
44350;PMS5003;62766;62.622;17.912;2023-04-24T04:05:53;3;3;
44350;PMS5003;62766;62.622;17.912;2023-04-24T04:08:21;2;2;
44350;PMS5003;62766;62.622;17.912;2023-04-24T04:10:50;4;4;
44350;PMS5003;62766;62.622;17.912;2023-04-24T04:13:18;3;3;
44350;PMS5003;62766;62.622;17.912;2023-04-24T04:15:47;4;4;
44350;PMS5003;62766;62.622;17.912;2023-04-24T04:18:15;4;3;
44350;PMS5003;62766;62.622;17.912;2023-04-24T04:20:44;4;4;
44350;PMS5003;62766;62.622;17.912;2023-04-24T04:23:12;4;2;
44350;PMS5003;62766;62.622;17.912;2023-04-24T04:25:41;3;3;
44350;PMS5003;62766;62.622;17.912;2023-04-24T04:28:09;4;3;
44350;PMS5003;62766;62.622;17.912;2023-04-24T04:30:38;3;2;
44350;PMS5003;62766;62.622;17.912;2023-04-24T04:33:06;3;3;
44350;PMS5003;62766;62.622;17.912;2023-04-24T04:35:35;3;3;
44350;PMS5003;62766;62.622;17.912;2023-04-24T04:38:03;5;4;
44350;PMS5003;62766;62.622;17.912;2023-04-24T04:40:32;2;2;
44350;PMS5003;62766;62.622;17.912;2023-04-24T04:43:00;3;3;
44350;PMS5003;62766;62.622;17.912;2023-04-24T04:45:29;3;3;
44350;PMS5003;62766;62.622;17.912;2023-04-24T04:47:57;4;4;
44350;PMS5003;62766;62.622;17.912;2023-04-24T04:50:26;3;3;
44350;PMS5003;62766;62.622;17.912;2023-04-24T04:52:54;3;3;
44350;PMS5003;62766;62.622;17.912;2023-04-24T04:55:23;3;3;
44350;PMS5003;62766;62.622;17.912;2023-04-24T04:57:51;2;2;
44350;PMS5003;62766;62.622;17.912;2023-04-24T05:00:20;4;4;
44350;PMS5003;62766;62.622;17.912;2023-04-24T05:02:48;1;1;
44350;PMS5003;62766;62.622;17.912;2023-04-24T05:05:17;4;4;
44350;PMS5003;62766;62.622;17.912;2023-04-24T05:07:45;3;3;
44350;PMS5003;62766;62.622;17.912;2023-04-24T05:10:14;5;5;
44350;PMS5003;62766;62.622;17.912;2023-04-24T05:12:44;3;3;
44350;PMS5003;62766;62.622;17.912;2023-04-24T05:15:13;2;2;
44350;PMS5003;62766;62.622;17.912;2023-04-24T05:17:43;5;5;
44350;PMS5003;62766;62.622;17.912;2023-04-24T05:20:11;1;1;
44350;PMS5003;62766;62.622;17.912;2023-04-24T05:22:40;3;3;
44350;PMS5003;62766;62.622;17.912;2023-04-24T05:25:09;4;2;
44350;PMS5003;62766;62.622;17.912;2023-04-24T05:27:37;3;3;
44350;PMS5003;62766;62.622;17.912;2023-04-24T05:30:06;2;2;
44350;PMS5003;62766;62.622;17.912;2023-04-24T05:32:36;5;4;
44350;PMS5003;62766;62.622;17.912;2023-04-24T05:35:05;5;5;
44350;PMS5003;62766;62.622;17.912;2023-04-24T05:37:33;4;4;
44350;PMS5003;62766;62.622;17.912;2023-04-24T05:40:01;3;3;
44350;PMS5003;62766;62.622;17.912;2023-04-24T05:42:30;5;3;
44350;PMS5003;62766;62.622;17.912;2023-04-24T05:44:58;3;3;
44350;PMS5003;62766;62.622;17.912;2023-04-24T05:47:27;3;3;
44350;PMS5003;62766;62.622;17.912;2023-04-24T05:49:56;5;3;
44350;PMS5003;62766;62.622;17.912;2023-04-24T05:52:24;3;3;
44350;PMS5003;62766;62.622;17.912;2023-04-24T05:54:53;3;3;
44350;PMS5003;62766;62.622;17.912;2023-04-24T05:57:21;3;3;
44350;PMS5003;62766;62.622;17.912;2023-04-24T05:59:50;2;2;
44350;PMS5003;62766;62.622;17.912;2023-04-24T06:02:18;3;2;
44350;PMS5003;62766;62.622;17.912;2023-04-24T06:04:47;7;4;
44350;PMS5003;62766;62.622;17.912;2023-04-24T06:07:16;3;3;
44350;PMS5003;62766;62.622;17.912;2023-04-24T06:09:44;3;3;
44350;PMS5003;62766;62.622;17.912;2023-04-24T06:12:12;4;4;
44350;PMS5003;62766;62.622;17.912;2023-04-24T06:14:41;5;4;
44350;PMS5003;62766;62.622;17.912;2023-04-24T06:17:09;4;4;
44350;PMS5003;62766;62.622;17.912;2023-04-24T06:19:38;4;4;
44350;PMS5003;62766;62.622;17.912;2023-04-24T06:22:06;2;2;
44350;PMS5003;62766;62.622;17.912;2023-04-24T06:24:35;6;5;
44350;PMS5003;62766;62.622;17.912;2023-04-24T06:27:03;3;3;
44350;PMS5003;62766;62.622;17.912;2023-04-24T06:29:32;4;4;
44350;PMS5003;62766;62.622;17.912;2023-04-24T06:32:02;4;4;
44350;PMS5003;62766;62.622;17.912;2023-04-24T06:34:30;3;3;
44350;PMS5003;62766;62.622;17.912;2023-04-24T06:36:59;3;3;
44350;PMS5003;62766;62.622;17.912;2023-04-24T06:39:27;5;5;
44350;PMS5003;62766;62.622;17.912;2023-04-24T06:41:56;4;4;
44350;PMS5003;62766;62.622;17.912;2023-04-24T06:44:24;5;5;
44350;PMS5003;62766;62.622;17.912;2023-04-24T06:46:52;4;4;
44350;PMS5003;62766;62.622;17.912;2023-04-24T06:49:21;4;4;
44350;PMS5003;62766;62.622;17.912;2023-04-24T06:51:49;3;3;
44350;PMS5003;62766;62.622;17.912;2023-04-24T06:54:18;4;4;
44350;PMS5003;62766;62.622;17.912;2023-04-24T06:56:46;3;3;
44350;PMS5003;62766;62.622;17.912;2023-04-24T06:59:15;6;6;
44350;PMS5003;62766;62.622;17.912;2023-04-24T07:01:43;5;5;
44350;PMS5003;62766;62.622;17.912;2023-04-24T07:04:12;6;5;
44350;PMS5003;62766;62.622;17.912;2023-04-24T07:06:40;4;4;
44350;PMS5003;62766;62.622;17.912;2023-04-24T07:09:09;7;6;
44350;PMS5003;62766;62.622;17.912;2023-04-24T07:11:37;5;5;
44350;PMS5003;62766;62.622;17.912;2023-04-24T07:14:05;6;6;
44350;PMS5003;62766;62.622;17.912;2023-04-24T07:16:34;7;7;
44350;PMS5003;62766;62.622;17.912;2023-04-24T07:19:03;6;6;
44350;PMS5003;62766;62.622;17.912;2023-04-24T07:21:31;4;4;
44350;PMS5003;62766;62.622;17.912;2023-04-24T07:24:00;5;5;
44350;PMS5003;62766;62.622;17.912;2023-04-24T07:26:29;5;3;
44350;PMS5003;62766;62.622;17.912;2023-04-24T07:28:58;5;5;
44350;PMS5003;62766;62.622;17.912;2023-04-24T07:31:27;3;3;
44350;PMS5003;62766;62.622;17.912;2023-04-24T07:33:56;6;6;
44350;PMS5003;62766;62.622;17.912;2023-04-24T07:36:24;4;4;
44350;PMS5003;62766;62.622;17.912;2023-04-24T07:38:53;4;4;
44350;PMS5003;62766;62.622;17.912;2023-04-24T07:41:22;5;5;
44350;PMS5003;62766;62.622;17.912;2023-04-24T07:43:50;6;6;
44350;PMS5003;62766;62.622;17.912;2023-04-24T07:46:19;6;5;
44350;PMS5003;62766;62.622;17.912;2023-04-24T07:48:47;5;4;
44350;PMS5003;62766;62.622;17.912;2023-04-24T07:51:16;6;6;
44350;PMS5003;62766;62.622;17.912;2023-04-24T07:53:44;5;5;
44350;PMS5003;62766;62.622;17.912;2023-04-24T07:56:13;7;5;
44350;PMS5003;62766;62.622;17.912;2023-04-24T07:58:41;6;4;
44350;PMS5003;62766;62.622;17.912;2023-04-24T08:01:10;4;4;
44350;PMS5003;62766;62.622;17.912;2023-04-24T08:03:38;3;3;
44350;PMS5003;62766;62.622;17.912;2023-04-24T08:06:07;3;3;
44350;PMS5003;62766;62.622;17.912;2023-04-24T08:08:35;5;5;
44350;PMS5003;62766;62.622;17.912;2023-04-24T08:11:04;11;10;
44350;PMS5003;62766;62.622;17.912;2023-04-24T08:13:32;4;4;
44350;PMS5003;62766;62.622;17.912;2023-04-24T08:16:01;3;3;
44350;PMS5003;62766;62.622;17.912;2023-04-24T08:18:29;2;2;
44350;PMS5003;62766;62.622;17.912;2023-04-24T08:20:58;4;4;
44350;PMS5003;62766;62.622;17.912;2023-04-24T08:23:26;4;3;
44350;PMS5003;62766;62.622;17.912;2023-04-24T08:25:55;4;4;
44350;PMS5003;62766;62.622;17.912;2023-04-24T08:28:23;4;4;
44350;PMS5003;62766;62.622;17.912;2023-04-24T08:30:54;5;5;
44350;PMS5003;62766;62.622;17.912;2023-04-24T08:33:22;3;3;
44350;PMS5003;62766;62.622;17.912;2023-04-24T08:35:50;3;3;
44350;PMS5003;62766;62.622;17.912;2023-04-24T08:38:21;4;4;
44350;PMS5003;62766;62.622;17.912;2023-04-24T08:40:49;4;4;
44350;PMS5003;62766;62.622;17.912;2023-04-24T08:43:17;3;3;
44350;PMS5003;62766;62.622;17.912;2023-04-24T08:45:49;4;4;
44350;PMS5003;62766;62.622;17.912;2023-04-24T08:48:18;5;4;
44350;PMS5003;62766;62.622;17.912;2023-04-24T08:50:46;2;2;
44350;PMS5003;62766;62.622;17.912;2023-04-24T08:53:18;3;3;
44350;PMS5003;62766;62.622;17.912;2023-04-24T08:55:47;4;4;
44350;PMS5003;62766;62.622;17.912;2023-04-24T08:58:16;4;4;
44350;PMS5003;62766;62.622;17.912;2023-04-24T09:00:45;2;2;
44350;PMS5003;62766;62.622;17.912;2023-04-24T09:03:15;2;2;
44350;PMS5003;62766;62.622;17.912;2023-04-24T09:05:44;6;3;
44350;PMS5003;62766;62.622;17.912;2023-04-24T09:08:15;2;2;
44350;PMS5003;62766;62.622;17.912;2023-04-24T09:10:46;6;6;
44350;PMS5003;62766;62.622;17.912;2023-04-24T09:13:15;3;3;
44350;PMS5003;62766;62.622;17.912;2023-04-24T09:15:45;4;2;
44350;PMS5003;62766;62.622;17.912;2023-04-24T09:18:13;2;2;
44350;PMS5003;62766;62.622;17.912;2023-04-24T09:21:00;5;2;
44350;PMS5003;62766;62.622;17.912;2023-04-24T09:23:29;3;3;
44350;PMS5003;62766;62.622;17.912;2023-04-24T09:26:00;3;3;
44350;PMS5003;62766;62.622;17.912;2023-04-24T09:28:30;3;3;
44350;PMS5003;62766;62.622;17.912;2023-04-24T09:31:03;3;3;
44350;PMS5003;62766;62.622;17.912;2023-04-24T09:33:35;2;2;
44350;PMS5003;62766;62.622;17.912;2023-04-24T09:36:03;2;2;
44350;PMS5003;62766;62.622;17.912;2023-04-24T09:38:34;2;2;
44350;PMS5003;62766;62.622;17.912;2023-04-24T09:41:04;3;3;
44350;PMS5003;62766;62.622;17.912;2023-04-24T09:43:34;2;2;
44350;PMS5003;62766;62.622;17.912;2023-04-24T09:46:05;2;2;
44350;PMS5003;62766;62.622;17.912;2023-04-24T09:48:34;2;2;
44350;PMS5003;62766;62.622;17.912;2023-04-24T09:51:04;2;2;
44350;PMS5003;62766;62.622;17.912;2023-04-24T09:53:34;3;3;
44350;PMS5003;62766;62.622;17.912;2023-04-24T09:56:03;2;2;
44350;PMS5003;62766;62.622;17.912;2023-04-24T09:58:36;2;2;
44350;PMS5003;62766;62.622;17.912;2023-04-24T10:03:20;3;3;
44350;PMS5003;62766;62.622;17.912;2023-04-24T10:05:52;2;2;
44350;PMS5003;62766;62.622;17.912;2023-04-24T10:08:20;2;2;
44350;PMS5003;62766;62.622;17.912;2023-04-24T10:10:49;3;3;
44350;PMS5003;62766;62.622;17.912;2023-04-24T10:13:17;2;2;
44350;PMS5003;62766;62.622;17.912;2023-04-24T10:15:45;4;3;
44350;PMS5003;62766;62.622;17.912;2023-04-24T10:18:16;3;3;
44350;PMS5003;62766;62.622;17.912;2023-04-24T10:20:44;2;2;
44350;PMS5003;62766;62.622;17.912;2023-04-24T10:23:12;4;4;
44350;PMS5003;62766;62.622;17.912;2023-04-24T10:25:41;2;2;
44350;PMS5003;62766;62.622;17.912;2023-04-24T10:28:09;4;3;
44350;PMS5003;62766;62.622;17.912;2023-04-24T10:30:37;3;3;
44350;PMS5003;62766;62.622;17.912;2023-04-24T10:33:11;4;4;
44350;PMS5003;62766;62.622;17.912;2023-04-24T10:35:40;2;2;
44350;PMS5003;62766;62.622;17.912;2023-04-24T10:38:13;2;2;
44350;PMS5003;62766;62.622;17.912;2023-04-24T10:40:45;4;3;
44350;PMS5003;62766;62.622;17.912;2023-04-24T10:43:15;3;3;
44350;PMS5003;62766;62.622;17.912;2023-04-24T10:46:04;3;3;
44350;PMS5003;62766;62.622;17.912;2023-04-24T10:48:33;3;3;
44350;PMS5003;62766;62.622;17.912;2023-04-24T10:51:03;2;2;
44350;PMS5003;62766;62.622;17.912;2023-04-24T10:53:31;2;2;
44350;PMS5003;62766;62.622;17.912;2023-04-24T10:56:04;3;3;
44350;PMS5003;62766;62.622;17.912;2023-04-24T10:58:37;3;3;
44350;PMS5003;62766;62.622;17.912;2023-04-24T11:01:07;7;7;
44350;PMS5003;62766;62.622;17.912;2023-04-24T11:03:35;9;7;
44350;PMS5003;62766;62.622;17.912;2023-04-24T11:06:05;9;9;
44350;PMS5003;62766;62.622;17.912;2023-04-24T11:08:38;8;8;
44350;PMS5003;62766;62.622;17.912;2023-04-24T11:11:10;19;18;
44350;PMS5003;62766;62.622;17.912;2023-04-24T11:14:13;16;16;
44350;PMS5003;62766;62.622;17.912;2023-04-24T11:16:43;8;6;
44350;PMS5003;62766;62.622;17.912;2023-04-24T11:19:18;3;2;
44350;PMS5003;62766;62.622;17.912;2023-04-24T11:21:54;2;2;
44350;PMS5003;62766;62.622;17.912;2023-04-24T11:24:23;8;8;
44350;PMS5003;62766;62.622;17.912;2023-04-24T11:26:53;6;6;
44350;PMS5003;62766;62.622;17.912;2023-04-24T11:29:22;10;10;
44350;PMS5003;62766;62.622;17.912;2023-04-24T11:31:50;19;18;
44350;PMS5003;62766;62.622;17.912;2023-04-24T11:34:19;16;16;
44350;PMS5003;62766;62.622;17.912;2023-04-24T11:36:48;16;16;
44350;PMS5003;62766;62.622;17.912;2023-04-24T11:39:16;6;6;
44350;PMS5003;62766;62.622;17.912;2023-04-24T11:41:45;8;8;
44350;PMS5003;62766;62.622;17.912;2023-04-24T11:44:15;6;6;
44350;PMS5003;62766;62.622;17.912;2023-04-24T11:46:48;5;5;
44350;PMS5003;62766;62.622;17.912;2023-04-24T11:49:17;20;20;
44350;PMS5003;62766;62.622;17.912;2023-04-24T11:51:46;9;9;
44350;PMS5003;62766;62.622;17.912;2023-04-24T11:54:15;4;4;
44350;PMS5003;62766;62.622;17.912;2023-04-24T11:56:44;3;3;
44350;PMS5003;62766;62.622;17.912;2023-04-24T11:59:14;3;3;
44350;PMS5003;62766;62.622;17.912;2023-04-24T12:01:43;3;3;
44350;PMS5003;62766;62.622;17.912;2023-04-24T12:04:12;2;1;
44350;PMS5003;62766;62.622;17.912;2023-04-24T12:06:58;3;3;
44350;PMS5003;62766;62.622;17.912;2023-04-24T12:09:28;2;2;
44350;PMS5003;62766;62.622;17.912;2023-04-24T12:11:56;2;2;
44350;PMS5003;62766;62.622;17.912;2023-04-24T12:14:24;4;3;
44350;PMS5003;62766;62.622;17.912;2023-04-24T12:16:53;3;3;
44350;PMS5003;62766;62.622;17.912;2023-04-24T12:19:21;3;3;
44350;PMS5003;62766;62.622;17.912;2023-04-24T12:21:59;5;3;
44350;PMS5003;62766;62.622;17.912;2023-04-24T12:24:28;3;3;
44350;PMS5003;62766;62.622;17.912;2023-04-24T12:26:57;2;2;
44350;PMS5003;62766;62.622;17.912;2023-04-24T12:29:25;2;2;
44350;PMS5003;62766;62.622;17.912;2023-04-24T12:31:53;3;3;
44350;PMS5003;62766;62.622;17.912;2023-04-24T12:34:22;1;1;
44350;PMS5003;62766;62.622;17.912;2023-04-24T12:36:52;4;4;
44350;PMS5003;62766;62.622;17.912;2023-04-24T12:39:20;3;2;
44350;PMS5003;62766;62.622;17.912;2023-04-24T12:41:50;2;2;
44350;PMS5003;62766;62.622;17.912;2023-04-24T12:44:28;2;2;
44350;PMS5003;62766;62.622;17.912;2023-04-24T12:46:57;2;2;
44350;PMS5003;62766;62.622;17.912;2023-04-24T12:49:26;3;3;
44350;PMS5003;62766;62.622;17.912;2023-04-24T12:51:54;4;4;
44350;PMS5003;62766;62.622;17.912;2023-04-24T12:54:22;3;3;
44350;PMS5003;62766;62.622;17.912;2023-04-24T12:56:51;2;2;
44350;PMS5003;62766;62.622;17.912;2023-04-24T12:59:19;2;1;
44350;PMS5003;62766;62.622;17.912;2023-04-24T13:01:47;3;3;
44350;PMS5003;62766;62.622;17.912;2023-04-24T13:04:16;2;2;
44350;PMS5003;62766;62.622;17.912;2023-04-24T13:06:44;4;2;
44350;PMS5003;62766;62.622;17.912;2023-04-24T13:09:13;1;1;
44350;PMS5003;62766;62.622;17.912;2023-04-24T13:11:41;4;2;
44350;PMS5003;62766;62.622;17.912;2023-04-24T13:14:10;3;3;
44350;PMS5003;62766;62.622;17.912;2023-04-24T13:16:38;3;2;
44350;PMS5003;62766;62.622;17.912;2023-04-24T13:19:07;3;3;
44350;PMS5003;62766;62.622;17.912;2023-04-24T13:21:35;2;2;
44350;PMS5003;62766;62.622;17.912;2023-04-24T13:24:04;2;2;
44350;PMS5003;62766;62.622;17.912;2023-04-24T13:26:32;3;3;
44350;PMS5003;62766;62.622;17.912;2023-04-24T13:29:02;7;3;
44350;PMS5003;62766;62.622;17.912;2023-04-24T13:31:30;3;3;
44350;PMS5003;62766;62.622;17.912;2023-04-24T13:33:59;2;2;
44350;PMS5003;62766;62.622;17.912;2023-04-24T13:36:27;4;4;
44350;PMS5003;62766;62.622;17.912;2023-04-24T13:38:55;3;3;
44350;PMS5003;62766;62.622;17.912;2023-04-24T13:41:24;5;4;
44350;PMS5003;62766;62.622;17.912;2023-04-24T13:43:52;2;2;
44350;PMS5003;62766;62.622;17.912;2023-04-24T13:46:21;3;2;
44350;PMS5003;62766;62.622;17.912;2023-04-24T13:48:49;2;2;
44350;PMS5003;62766;62.622;17.912;2023-04-24T13:51:17;2;2;
44350;PMS5003;62766;62.622;17.912;2023-04-24T13:53:46;2;2;
44350;PMS5003;62766;62.622;17.912;2023-04-24T13:56:14;3;1;
44350;PMS5003;62766;62.622;17.912;2023-04-24T13:58:42;2;2;
44350;PMS5003;62766;62.622;17.912;2023-04-24T14:01:10;2;2;
44350;PMS5003;62766;62.622;17.912;2023-04-24T14:03:39;2;2;
44350;PMS5003;62766;62.622;17.912;2023-04-24T14:06:07;2;2;
44350;PMS5003;62766;62.622;17.912;2023-04-24T14:08:36;1;1;
44350;PMS5003;62766;62.622;17.912;2023-04-24T14:11:04;2;2;
44350;PMS5003;62766;62.622;17.912;2023-04-24T14:13:33;5;2;
44350;PMS5003;62766;62.622;17.912;2023-04-24T14:16:03;3;3;
44350;PMS5003;62766;62.622;17.912;2023-04-24T14:18:31;1;1;
44350;PMS5003;62766;62.622;17.912;2023-04-24T14:20:59;1;1;
44350;PMS5003;62766;62.622;17.912;2023-04-24T14:23:28;4;3;
44350;PMS5003;62766;62.622;17.912;2023-04-24T14:25:56;1;1;
44350;PMS5003;62766;62.622;17.912;2023-04-24T14:28:24;2;2;
44350;PMS5003;62766;62.622;17.912;2023-04-24T14:30:53;1;1;
44350;PMS5003;62766;62.622;17.912;2023-04-24T14:33:21;7;5;
44350;PMS5003;62766;62.622;17.912;2023-04-24T14:35:49;4;4;
44350;PMS5003;62766;62.622;17.912;2023-04-24T14:38:18;2;2;
44350;PMS5003;62766;62.622;17.912;2023-04-24T14:40:46;1;1;
44350;PMS5003;62766;62.622;17.912;2023-04-24T14:43:14;3;3;
44350;PMS5003;62766;62.622;17.912;2023-04-24T14:45:43;2;2;
44350;PMS5003;62766;62.622;17.912;2023-04-24T14:48:11;3;3;
44350;PMS5003;62766;62.622;17.912;2023-04-24T14:50:39;2;2;
44350;PMS5003;62766;62.622;17.912;2023-04-24T14:53:08;2;2;
44350;PMS5003;62766;62.622;17.912;2023-04-24T14:55:36;2;2;
44350;PMS5003;62766;62.622;17.912;2023-04-24T14:58:05;3;3;
44350;PMS5003;62766;62.622;17.912;2023-04-24T15:00:33;2;2;
44350;PMS5003;62766;62.622;17.912;2023-04-24T15:03:03;1;1;
44350;PMS5003;62766;62.622;17.912;2023-04-24T15:05:31;2;2;
44350;PMS5003;62766;62.622;17.912;2023-04-24T15:08:00;1;1;
44350;PMS5003;62766;62.622;17.912;2023-04-24T15:10:28;5;3;
44350;PMS5003;62766;62.622;17.912;2023-04-24T15:12:56;2;2;
44350;PMS5003;62766;62.622;17.912;2023-04-24T15:15:25;1;1;
44350;PMS5003;62766;62.622;17.912;2023-04-24T15:17:53;2;2;
44350;PMS5003;62766;62.622;17.912;2023-04-24T15:20:22;2;2;
44350;PMS5003;62766;62.622;17.912;2023-04-24T15:22:50;2;2;
44350;PMS5003;62766;62.622;17.912;2023-04-24T15:25:18;3;2;
44350;PMS5003;62766;62.622;17.912;2023-04-24T15:27:47;3;1;
44350;PMS5003;62766;62.622;17.912;2023-04-24T15:30:15;4;2;
44350;PMS5003;62766;62.622;17.912;2023-04-24T15:32:43;1;1;
44350;PMS5003;62766;62.622;17.912;2023-04-24T15:35:12;3;3;
44350;PMS5003;62766;62.622;17.912;2023-04-24T15:37:40;2;2;
44350;PMS5003;62766;62.622;17.912;2023-04-24T15:40:09;3;3;
44350;PMS5003;62766;62.622;17.912;2023-04-24T15:42:39;1;1;
44350;PMS5003;62766;62.622;17.912;2023-04-24T15:45:08;3;3;
44350;PMS5003;62766;62.622;17.912;2023-04-24T15:47:37;3;3;
44350;PMS5003;62766;62.622;17.912;2023-04-24T15:50:06;3;2;
44350;PMS5003;62766;62.622;17.912;2023-04-24T15:52:36;3;3;
44350;PMS5003;62766;62.622;17.912;2023-04-24T15:55:04;3;3;
44350;PMS5003;62766;62.622;17.912;2023-04-24T15:57:35;1;1;
44350;PMS5003;62766;62.622;17.912;2023-04-24T16:03:35;3;2;
44350;PMS5003;62766;62.622;17.912;2023-04-24T16:06:05;2;2;
44350;PMS5003;62766;62.622;17.912;2023-04-24T16:08:33;3;3;
44350;PMS5003;62766;62.622;17.912;2023-04-24T16:11:02;3;2;
44350;PMS5003;62766;62.622;17.912;2023-04-24T16:13:30;3;3;
44350;PMS5003;62766;62.622;17.912;2023-04-24T16:15:58;5;5;
44350;PMS5003;62766;62.622;17.912;2023-04-24T16:18:27;5;3;
44350;PMS5003;62766;62.622;17.912;2023-04-24T16:20:55;2;2;
44350;PMS5003;62766;62.622;17.912;2023-04-24T16:23:24;3;3;
44350;PMS5003;62766;62.622;17.912;2023-04-24T16:25:52;3;3;
44350;PMS5003;62766;62.622;17.912;2023-04-24T16:28:22;2;2;
44350;PMS5003;62766;62.622;17.912;2023-04-24T16:30:50;2;2;
44350;PMS5003;62766;62.622;17.912;2023-04-24T16:33:19;3;3;
44350;PMS5003;62766;62.622;17.912;2023-04-24T16:35:47;2;2;
44350;PMS5003;62766;62.622;17.912;2023-04-24T16:38:17;2;2;
44350;PMS5003;62766;62.622;17.912;2023-04-24T16:40:46;2;2;
44350;PMS5003;62766;62.622;17.912;2023-04-24T16:43:14;2;2;
44350;PMS5003;62766;62.622;17.912;2023-04-24T16:45:44;2;2;
44350;PMS5003;62766;62.622;17.912;2023-04-24T16:48:13;2;2;
44350;PMS5003;62766;62.622;17.912;2023-04-24T16:50:43;3;1;
44350;PMS5003;62766;62.622;17.912;2023-04-24T16:53:11;2;2;
44350;PMS5003;62766;62.622;17.912;2023-04-24T16:55:40;3;2;